Time;durP1;ratioP1;P1;durP2;ratioP2;P2;SDS_P1;SDS_P2;PMS_P1;PMS_P2;Temp;Humidity;BMP_temperature;BMP_pressure;BME280_temperature;BME280_humidity;BME280_pressure;Samples;Min_cycle;Max_cycle;Signal;HPM_P1;HPM_P2
2023/08/10 00:01:40;;;;;;;3.40;1.92;;;15.00;99.90;;;;;;5031989;28;20695;-59
2023/08/10 00:04:07;;;;;;;4.67;1.87;;;14.90;99.90;;;;;;5032284;28;20214;-59
2023/08/10 00:06:35;;;;;;;6.27;1.90;;;14.80;99.90;;;;;;5032258;28;20293;-60
2023/08/10 00:09:02;;;;;;;4.20;2.23;;;14.70;99.90;;;;;;5032554;28;20264;-60
2023/08/10 00:11:29;;;;;;;2.27;1.80;;;14.70;99.90;;;;;;5032255;28;20257;-59
2023/08/10 00:13:56;;;;;;;2.97;1.93;;;14.70;99.90;;;;;;5032144;28;20210;-59
2023/08/10 00:16:22;;;;;;;2.50;1.90;;;14.60;99.90;;;;;;5031796;28;20289;-60
2023/08/10 00:18:49;;;;;;;3.30;2.10;;;14.50;99.90;;;;;;5031852;28;20225;-59
2023/08/10 00:21:16;;;;;;;2.67;1.83;;;14.50;99.90;;;;;;5032049;28;20206;-60
2023/08/10 00:23:44;;;;;;;4.20;2.30;;;14.40;99.90;;;;;;5032168;28;20588;-60
2023/08/10 00:26:10;;;;;;;2.70;1.90;;;14.40;99.90;;;;;;5032229;28;20207;-59
2023/08/10 00:28:37;;;;;;;3.33;1.87;;;14.40;99.90;;;;;;5032023;28;20238;-59
2023/08/10 00:31:04;;;;;;;3.10;1.97;;;14.30;99.90;;;;;;5031843;28;20206;-60
2023/08/10 00:33:31;;;;;;;5.73;2.10;;;14.30;99.90;;;;;;5031732;28;20587;-60
2023/08/10 00:36:01;;;;;;;4.43;2.00;;;14.20;99.90;;;;;;5031501;28;20210;-59
2023/08/10 00:38:28;;;;;;;3.00;1.80;;;14.20;99.90;;;;;;5031664;28;20244;-59
2023/08/10 00:40:56;;;;;;;4.73;1.77;;;14.20;99.90;;;;;;5031459;28;20257;-57
2023/08/10 00:43:24;;;;;;;4.73;1.97;;;14.10;99.90;;;;;;5031537;28;20301;-57
2023/08/10 00:45:51;;;;;;;2.50;1.70;;;14.10;99.90;;;;;;5031160;28;20232;-57
2023/08/10 00:48:18;;;;;;;3.47;2.13;;;14.00;99.90;;;;;;5031709;28;20230;-56
2023/08/10 00:50:45;;;;;;;2.60;2.10;;;14.00;99.90;;;;;;5031690;28;20245;-58
2023/08/10 00:53:11;;;;;;;4.50;1.90;;;14.00;99.90;;;;;;5031534;28;20210;-56
2023/08/10 00:55:38;;;;;;;6.83;2.20;;;14.00;99.90;;;;;;5031435;28;20232;-59
2023/08/10 00:58:06;;;;;;;2.40;1.83;;;13.90;99.90;;;;;;5031371;28;20284;-56
2023/08/10 01:00:34;;;;;;;3.80;2.00;;;13.90;99.90;;;;;;5031230;28;20222;-57
2023/08/10 01:03:01;;;;;;;3.70;2.07;;;13.80;99.90;;;;;;5031521;28;20210;-57
2023/08/10 01:05:33;;;;;;;2.37;2.10;;;13.80;99.90;;;;;;5031281;28;20690;-56
2023/08/10 01:08:08;;;;;;;5.23;1.77;;;13.70;99.90;;;;;;5031160;28;20309;-56
2023/08/10 01:10:44;;;;;;;1.90;1.70;;;13.60;99.90;;;;;;5031305;28;20217;-57
2023/08/10 01:13:20;;;;;;;2.30;2.10;;;13.60;99.90;;;;;;5032294;28;20297;-58
2023/08/10 01:15:52;;;;;;;2.80;2.03;;;13.60;99.90;;;;;;5035117;28;20206;-58
2023/08/10 01:18:26;;;;;;;2.63;2.23;;;13.60;99.90;;;;;;5035451;28;20225;-57
2023/08/10 01:20:54;;;;;;;4.93;2.03;;;13.60;99.90;;;;;;5035269;28;20670;-57
2023/08/10 01:23:24;;;;;;;4.70;1.90;;;13.50;99.90;;;;;;5035067;28;20260;-59
2023/08/10 01:25:53;;;;;;;5.03;2.00;;;13.50;99.90;;;;;;5035143;28;20478;-57
2023/08/10 01:28:20;;;;;;;2.33;1.97;;;13.40;99.90;;;;;;5035170;28;20710;-58
2023/08/10 01:30:46;;;;;;;3.23;2.00;;;13.40;99.90;;;;;;5035124;28;20210;-57
2023/08/10 01:33:13;;;;;;;2.10;1.83;;;13.40;99.90;;;;;;5035064;28;20202;-58
2023/08/10 01:35:40;;;;;;;4.30;2.07;;;13.40;99.90;;;;;;5034767;28;20202;-57
2023/08/10 01:38:07;;;;;;;2.17;1.90;;;13.40;99.90;;;;;;5034637;28;20272;-57
2023/08/10 01:40:34;;;;;;;3.23;2.10;;;13.40;99.90;;;;;;5035107;28;20222;-57
2023/08/10 01:43:03;;;;;;;2.30;2.10;;;13.40;99.90;;;;;;5034713;28;20570;-58
2023/08/10 01:45:30;;;;;;;2.57;2.13;;;13.30;99.90;;;;;;5034846;28;20263;-59
2023/08/10 01:48:03;;;;;;;2.53;2.33;;;13.30;99.90;;;;;;5034620;28;20230;-57
2023/08/10 01:50:32;;;;;;;2.70;1.97;;;13.30;99.90;;;;;;5034720;28;20330;-57
2023/08/10 01:53:05;;;;;;;2.80;2.13;;;13.20;99.90;;;;;;5034997;28;20214;-56
2023/08/10 01:55:32;;;;;;;4.13;2.20;;;13.20;99.90;;;;;;5034697;28;20230;-57
2023/08/10 01:57:59;;;;;;;2.57;2.13;;;13.10;99.90;;;;;;5034341;28;20237;-57
2023/08/10 02:00:27;;;;;;;4.07;2.03;;;13.10;99.90;;;;;;5034421;28;20225;-58
2023/08/10 02:02:54;;;;;;;5.20;2.00;;;13.10;99.90;;;;;;5034380;28;20202;-58
2023/08/10 02:05:21;;;;;;;3.33;2.00;;;13.00;99.90;;;;;;5034544;28;20221;-57
2023/08/10 02:07:49;;;;;;;2.80;1.90;;;13.00;99.90;;;;;;5034444;28;20226;-57
2023/08/10 02:10:16;;;;;;;2.87;2.07;;;13.00;99.90;;;;;;5034601;28;20238;-57
2023/08/10 02:12:43;;;;;;;2.40;2.10;;;13.00;99.90;;;;;;5034414;28;20210;-57
2023/08/10 02:15:12;;;;;;;2.23;2.03;;;12.90;99.90;;;;;;5034291;28;20205;-57
2023/08/10 02:17:41;;;;;;;4.13;1.90;;;13.00;99.90;;;;;;5033672;28;20233;-57
2023/08/10 02:20:12;;;;;;;3.87;2.17;;;12.90;99.90;;;;;;5034058;28;20226;-57
2023/08/10 02:22:39;;;;;;;2.20;2.00;;;12.80;99.90;;;;;;5034308;28;20210;-58
2023/08/10 02:25:06;;;;;;;3.50;2.13;;;12.90;99.90;;;;;;5033872;28;20245;-56
2023/08/10 02:27:33;;;;;;;3.77;2.30;;;12.80;99.90;;;;;;5033701;28;20325;-58
2023/08/10 02:30:00;;;;;;;2.73;2.30;;;12.80;99.90;;;;;;5033950;28;20590;-56
2023/08/10 02:32:26;;;;;;;3.40;1.97;;;12.80;99.90;;;;;;5034471;28;20210;-56
2023/08/10 02:34:54;;;;;;;10.97;2.20;;;12.80;99.90;;;;;;5033917;28;20210;-58
2023/08/10 02:37:21;;;;;;;3.87;1.87;;;12.70;99.90;;;;;;5033354;28;20644;-57
2023/08/10 02:39:48;;;;;;;2.20;2.00;;;12.70;99.90;;;;;;5033776;28;20237;-57
2023/08/10 02:42:14;;;;;;;4.13;2.27;;;12.70;99.90;;;;;;5033850;28;20210;-56
2023/08/10 02:44:41;;;;;;;4.03;2.50;;;12.70;99.90;;;;;;5033537;28;20237;-58
2023/08/10 02:47:08;;;;;;;2.60;2.40;;;12.70;99.90;;;;;;5033560;28;20288;-57
2023/08/10 02:49:35;;;;;;;2.30;1.90;;;12.70;99.90;;;;;;5033918;28;20214;-56
2023/08/10 02:52:03;;;;;;;3.07;2.03;;;12.60;99.90;;;;;;5033490;28;20208;-56
2023/08/10 02:54:30;;;;;;;2.83;2.10;;;12.60;99.90;;;;;;5033524;28;20624;-56
2023/08/10 02:56:56;;;;;;;2.93;2.13;;;12.60;99.90;;;;;;5032966;28;20645;-56
2023/08/10 02:59:23;;;;;;;3.90;2.00;;;12.50;99.90;;;;;;5033779;28;20215;-57
2023/08/10 03:01:50;;;;;;;2.40;2.20;;;12.60;99.90;;;;;;5033572;28;20237;-56
2023/08/10 03:04:17;;;;;;;2.57;2.30;;;12.60;99.90;;;;;;5033304;28;20210;-57
2023/08/10 03:06:43;;;;;;;3.40;2.07;;;12.60;99.90;;;;;;5033094;28;20683;-57
2023/08/10 03:09:11;;;;;;;3.37;2.30;;;12.70;99.90;;;;;;5033628;28;20202;-57
2023/08/10 03:11:38;;;;;;;4.77;2.40;;;12.80;99.90;;;;;;5033623;28;20198;-56
2023/08/10 03:14:05;;;;;;;3.10;2.57;;;12.90;99.90;;;;;;5033422;28;20205;-56
2023/08/10 03:16:32;;;;;;;3.07;2.10;;;12.90;99.90;;;;;;5032960;28;20213;-56
2023/08/10 03:18:59;;;;;;;5.17;2.13;;;13.00;99.90;;;;;;5033208;28;20217;-56
2023/08/10 03:21:26;;;;;;;4.10;2.30;;;12.90;99.90;;;;;;5033110;28;20288;-56
2023/08/10 03:23:52;;;;;;;3.13;2.30;;;13.00;99.90;;;;;;5032998;28;20203;-58
2023/08/10 03:26:20;;;;;;;2.60;2.40;;;12.90;99.90;;;;;;5032541;28;20230;-56
2023/08/10 03:28:47;;;;;;;3.87;2.20;;;12.90;99.90;;;;;;5032956;28;20213;-56
2023/08/10 03:31:14;;;;;;;2.40;2.20;;;12.80;99.90;;;;;;5033002;28;20647;-57
2023/08/10 03:33:41;;;;;;;4.23;2.20;;;12.80;99.90;;;;;;5032982;28;20206;-56
2023/08/10 03:36:08;;;;;;;5.07;4.53;;;12.80;99.90;;;;;;5031839;28;20673;-56
2023/08/10 03:38:35;;;;;;;5.47;2.10;;;12.80;99.90;;;;;;5032426;28;20242;-56
2023/08/10 03:41:02;;;;;;;2.50;2.30;;;12.70;99.90;;;;;;5032511;28;20230;-56
2023/08/10 03:43:30;;;;;;;1.93;1.77;;;12.70;99.90;;;;;;5032732;28;20212;-58
2023/08/10 03:45:57;;;;;;;5.13;2.23;;;12.70;99.90;;;;;;5032340;28;20209;-58
2023/08/10 03:48:23;;;;;;;2.43;2.13;;;12.70;99.90;;;;;;5032606;28;20230;-58
2023/08/10 03:50:50;;;;;;;2.00;1.90;;;12.70;99.90;;;;;;5032421;28;20206;-57
2023/08/10 03:53:17;;;;;;;3.10;1.97;;;12.70;99.90;;;;;;5032510;28;20202;-57
2023/08/10 03:55:44;;;;;;;2.30;2.10;;;12.80;99.90;;;;;;5032360;28;20213;-56
2023/08/10 03:58:10;;;;;;;3.13;2.03;;;12.80;99.90;;;;;;5032063;28;20230;-56
2023/08/10 04:00:44;;;;;;;3.43;2.50;;;12.80;99.90;;;;;;5032297;28;20226;-56
2023/08/10 04:03:11;;;;;;;3.60;2.00;;;12.70;99.90;;;;;;5032231;28;20886;-56
2023/08/10 04:05:38;;;;;;;6.73;2.33;;;12.70;99.90;;;;;;5031766;28;20233;-59
2023/08/10 04:08:05;;;;;;;2.60;2.27;;;12.70;99.90;;;;;;5032315;28;20253;-55
2023/08/10 04:10:32;;;;;;;3.47;2.60;;;12.70;99.90;;;;;;5032208;28;20206;-57
2023/08/10 04:12:59;;;;;;;3.00;2.20;;;12.60;99.90;;;;;;5031924;28;20639;-56
2023/08/10 04:15:26;;;;;;;3.13;2.40;;;12.70;99.90;;;;;;5032269;28;20202;-55
2023/08/10 04:17:54;;;;;;;4.47;2.47;;;12.60;99.90;;;;;;5031496;28;20710;-56
2023/08/10 04:20:21;;;;;;;4.17;2.70;;;12.60;99.90;;;;;;5031713;28;20236;-56
2023/08/10 04:22:48;;;;;;;3.50;2.50;;;12.60;99.90;;;;;;5031972;28;20233;-57
2023/08/10 04:25:14;;;;;;;2.50;2.30;;;12.60;99.90;;;;;;5032049;28;20232;-56
2023/08/10 04:27:41;;;;;;;2.67;2.47;;;12.70;99.90;;;;;;5031479;28;20222;-56
2023/08/10 04:30:09;;;;;;;4.83;2.30;;;12.70;99.90;;;;;;5031789;28;20580;-58
2023/08/10 04:32:36;;;;;;;4.30;2.33;;;12.70;99.90;;;;;;5031809;28;20206;-58
2023/08/10 04:35:05;;;;;;;3.53;2.00;;;12.70;99.90;;;;;;5031550;28;20206;-57
2023/08/10 04:37:31;;;;;;;3.07;2.60;;;12.70;99.90;;;;;;5031247;28;20666;-57
2023/08/10 04:39:58;;;;;;;3.13;2.27;;;12.80;99.90;;;;;;5031605;28;20639;-57
2023/08/10 04:42:25;;;;;;;4.30;2.60;;;12.80;99.90;;;;;;5031374;28;20222;-56
2023/08/10 04:44:51;;;;;;;4.57;2.30;;;12.90;99.90;;;;;;5031684;28;20214;-58
2023/08/10 04:47:18;;;;;;;3.90;2.70;;;12.90;99.90;;;;;;5030997;28;20315;-57
2023/08/10 04:49:45;;;;;;;2.50;2.30;;;13.00;99.90;;;;;;5031291;28;20564;-57
2023/08/10 04:52:13;;;;;;;2.90;2.33;;;13.00;99.90;;;;;;5031566;28;20213;-57
2023/08/10 04:54:40;;;;;;;2.30;2.10;;;13.10;99.90;;;;;;5031515;28;20238;-56
2023/08/10 04:57:07;;;;;;;3.87;2.40;;;13.10;99.90;;;;;;5031154;28;20602;-58
2023/08/10 04:59:33;;;;;;;4.87;2.40;;;13.20;99.90;;;;;;5031393;28;20314;-57
2023/08/10 05:02:00;;;;;;;3.37;2.20;;;13.20;99.90;;;;;;5031222;28;20226;-56
2023/08/10 05:04:27;;;;;;;3.37;2.50;;;13.20;99.90;;;;;;5031480;28;20217;-57
2023/08/10 05:06:53;;;;;;;2.77;2.33;;;13.30;99.90;;;;;;5031157;28;20268;-57
2023/08/10 05:09:21;;;;;;;2.67;2.00;;;13.30;99.90;;;;;;5031515;28;20221;-57
2023/08/10 05:11:48;;;;;;;3.90;2.27;;;13.40;99.90;;;;;;5031214;28;20589;-56
2023/08/10 05:14:15;;;;;;;3.00;2.30;;;13.40;99.90;;;;;;5031983;28;20213;-58
2023/08/10 05:16:41;;;;;;;2.33;2.13;;;13.40;99.90;;;;;;5030967;28;20233;-56
2023/08/10 05:19:08;;;;;;;2.67;2.10;;;13.50;99.90;;;;;;5031587;28;20214;-55
2023/08/10 05:21:35;;;;;;;2.73;2.30;;;13.70;99.90;;;;;;5031559;28;20257;-57
2023/08/10 05:24:01;;;;;;;2.80;2.23;;;13.80;99.90;;;;;;5032137;28;20679;-57
2023/08/10 05:26:29;;;;;;;2.13;1.93;;;13.90;99.90;;;;;;5031527;28;20206;-56
2023/08/10 05:28:56;;;;;;;3.23;2.20;;;14.10;99.90;;;;;;5031893;28;20214;-56
2023/08/10 05:31:23;;;;;;;4.93;2.20;;;14.20;99.90;;;;;;5031131;28;20210;-56
2023/08/10 05:33:49;;;;;;;3.13;1.83;;;14.40;99.90;;;;;;5031207;28;20678;-57
2023/08/10 05:36:16;;;;;;;2.87;2.00;;;14.40;99.90;;;;;;5031214;28;20213;-57
2023/08/10 05:38:43;;;;;;;2.67;2.40;;;14.60;99.90;;;;;;5030886;28;20635;-57
2023/08/10 05:41:09;;;;;;;2.67;2.17;;;14.70;99.90;;;;;;5031158;28;20222;-57
2023/08/10 05:43:37;;;;;;;1.95;1.77;;;15.40;99.90;;;;;;5030865;28;20206;-57
2023/08/10 05:46:04;;;;;;;1.65;1.27;;;17.00;99.90;;;;;;5030913;28;20203;-57
2023/08/10 05:48:31;;;;;;;1.80;1.60;;;18.60;99.90;;;;;;5030927;28;20769;-57
2023/08/10 05:50:57;;;;;;;1.52;1.35;;;20.00;99.90;;;;;;5031410;28;20761;-57
2023/08/10 05:53:24;;;;;;;1.55;1.45;;;21.20;99.90;;;;;;5031294;28;20217;-57
2023/08/10 05:55:51;;;;;;;3.03;1.30;;;22.30;99.90;;;;;;5030786;28;20435;-57
2023/08/10 05:58:17;;;;;;;2.90;1.40;;;23.40;99.90;;;;;;5030805;28;20226;-56
2023/08/10 06:00:46;;;;;;;2.28;1.55;;;23.50;99.90;;;;;;5034226;28;20213;-57
2023/08/10 06:03:14;;;;;;;2.00;1.35;;;23.80;99.90;;;;;;5035071;28;20209;-56
2023/08/10 06:05:42;;;;;;;2.40;1.38;;;23.60;99.90;;;;;;5034253;28;20305;-56
2023/08/10 06:08:08;;;;;;;1.30;1.20;;;23.50;99.90;;;;;;5034257;28;20226;-58
2023/08/10 06:10:35;;;;;;;1.55;1.45;;;23.70;99.90;;;;;;5034460;28;20246;-56
2023/08/10 06:13:02;;;;;;;1.80;1.60;;;24.00;99.90;;;;;;5034125;28;20678;-56
2023/08/10 06:15:29;;;;;;;2.08;1.30;;;24.00;99.90;;;;;;5034634;28;20213;-57
2023/08/10 06:17:57;;;;;;;2.60;1.48;;;23.90;99.90;;;;;;5033901;28;20277;-56
2023/08/10 06:20:26;;;;;;;2.20;1.88;;;23.50;99.90;;;;;;5034107;28;20238;-56
2023/08/10 06:22:54;;;;;;;1.42;1.33;;;22.70;99.90;;;;;;5034192;28;20230;-56
2023/08/10 06:25:22;;;;;;;4.07;1.98;;;22.00;99.90;;;;;;5034290;28;20242;-57
2023/08/10 06:27:49;;;;;;;3.45;1.73;;;21.50;99.90;;;;;;5033727;28;20313;-57
2023/08/10 06:30:16;;;;;;;1.58;1.48;;;21.00;99.90;;;;;;5034100;28;20210;-56
2023/08/10 06:32:43;;;;;;;1.85;1.63;;;20.70;99.90;;;;;;5033901;28;20626;-56
2023/08/10 06:35:11;;;;;;;1.88;1.70;;;20.40;99.90;;;;;;5033891;28;20212;-56
2023/08/10 06:37:39;;;;;;;1.90;1.70;;;20.10;99.90;;;;;;5070570;22;20229;-56
2023/08/10 06:40:08;;;;;;;3.10;1.83;;;19.90;99.90;;;;;;5073541;28;20619;-57
2023/08/10 06:42:35;;;;;;;2.88;1.70;;;19.70;99.90;;;;;;5073721;28;20247;-56
2023/08/10 06:45:03;;;;;;;2.45;1.70;;;19.70;99.90;;;;;;5073355;28;20232;-56
2023/08/10 06:47:30;;;;;;;1.70;1.50;;;19.50;99.90;;;;;;5073148;28;20598;-56
2023/08/10 06:49:57;;;;;;;2.60;2.00;;;19.40;99.90;;;;;;5073293;28;20665;-57
2023/08/10 06:52:25;;;;;;;2.40;1.75;;;19.30;99.90;;;;;;5073189;28;20607;-57
2023/08/10 06:54:52;;;;;;;2.35;1.63;;;19.10;99.90;;;;;;5073313;28;20304;-57
2023/08/10 06:57:19;;;;;;;3.42;1.85;;;18.90;99.90;;;;;;5072839;28;20708;-55
2023/08/10 06:59:46;;;;;;;2.03;1.63;;;18.80;99.90;;;;;;5073120;28;20212;-58
2023/08/10 07:02:13;;;;;;;4.05;1.80;;;18.70;99.90;;;;;;5072868;28;20229;-56
2023/08/10 07:04:40;;;;;;;2.08;1.70;;;18.60;99.90;;;;;;5073099;28;20216;-56
2023/08/10 07:07:07;;;;;;;5.75;2.00;;;18.60;99.90;;;;;;5072662;28;20213;-57
2023/08/10 07:09:36;;;;;;;1.75;1.35;;;18.80;99.90;;;;;;5073054;28;20311;-58
2023/08/10 07:12:03;;;;;;;2.03;1.73;;;19.00;99.90;;;;;;5071892;28;20267;-57
2023/08/10 07:14:30;;;;;;;2.70;1.55;;;19.30;99.90;;;;;;5072558;28;20731;-57
2023/08/10 07:16:57;;;;;;;3.03;1.80;;;19.40;99.90;;;;;;5072436;28;20201;-57
2023/08/10 07:19:24;;;;;;;5.75;1.85;;;19.70;99.90;;;;;;5072880;28;20232;-57
2023/08/10 07:21:55;;;;;;;4.82;1.85;;;19.90;99.90;;;;;;5072713;28;20230;-58
2023/08/10 07:24:22;;;;;;;6.15;1.90;;;20.00;99.90;;;;;;5072784;28;20216;-57
2023/08/10 07:26:51;;;;;;;2.35;1.50;;;20.20;99.90;;;;;;5072257;28;20230;-57
2023/08/10 07:29:18;;;;;;;3.45;1.90;;;20.40;99.90;;;;;;5073187;28;20300;-56
2023/08/10 07:31:45;;;;;;;2.05;1.70;;;20.50;99.90;;;;;;5072389;28;20570;-56
2023/08/10 07:34:12;;;;;;;2.67;1.70;;;20.70;99.90;;;;;;5072947;28;20231;-56
2023/08/10 07:36:39;;;;;;;5.03;2.05;;;20.90;99.90;;;;;;5072450;28;20295;-58
2023/08/10 07:39:05;;;;;;;2.30;1.80;;;21.20;99.90;;;;;;5072329;28;20683;-57
2023/08/10 07:41:32;;;;;;;4.57;2.30;;;21.40;99.90;;;;;;5072029;28;20228;-57
2023/08/10 07:44:00;;;;;;;2.33;1.90;;;21.50;99.90;;;;;;5071976;28;20216;-57
2023/08/10 07:46:27;;;;;;;3.13;1.90;;;21.60;99.90;;;;;;5071778;28;20209;-59
2023/08/10 07:48:54;;;;;;;1.85;1.65;;;21.60;99.90;;;;;;5072134;28;20256;-56
2023/08/10 07:51:21;;;;;;;1.88;1.25;;;21.70;99.90;;;;;;5072250;28;20604;-57
2023/08/10 07:53:48;;;;;;;3.42;1.30;;;21.70;99.90;;;;;;5072293;28;20208;-56
2023/08/10 07:56:14;;;;;;;2.15;1.50;;;21.70;99.90;;;;;;5071948;28;20225;-55
2023/08/10 07:58:41;;;;;;;4.00;1.55;;;21.90;99.90;;;;;;5072103;28;20628;-56
2023/08/10 08:01:11;;;;;;;4.30;1.27;;;21.80;99.90;;;;;;5072023;28;20629;-56
2023/08/10 08:03:38;;;;;;;2.05;1.35;;;21.80;99.90;;;;;;5072284;28;20235;-57
2023/08/10 08:06:04;;;;;;;1.67;1.20;;;22.00;99.90;;;;;;5071659;28;20224;-56
2023/08/10 08:08:31;;;;;;;2.85;1.50;;;22.00;99.90;;;;;;5072039;28;20232;-56
2023/08/10 08:10:58;;;;;;;3.40;1.60;;;22.20;99.90;;;;;;5071608;28;20201;-55
2023/08/10 08:13:24;;;;;;;3.70;1.40;;;22.30;99.90;;;;;;5071869;28;20648;-56
2023/08/10 08:15:51;;;;;;;2.65;1.67;;;22.40;99.90;;;;;;5071650;28;20572;-56
2023/08/10 08:18:44;;;;;;;2.33;1.50;;;22.60;99.90;;;;;;5072353;28;20236;-56
2023/08/10 08:21:12;;;;;;;1.80;1.30;;;22.90;99.90;;;;;;5072202;28;20201;-55
2023/08/10 08:23:39;;;;;;;3.45;1.50;;;23.20;99.90;;;;;;5071979;28;20259;-56
2023/08/10 08:26:07;;;;;;;2.75;1.70;;;23.70;99.90;;;;;;5072397;28;20215;-57
2023/08/10 08:28:33;;;;;;;3.28;1.85;;;24.00;99.90;;;;;;5072441;28;20235;-56
2023/08/10 08:31:00;;;;;;;2.15;1.50;;;24.50;99.90;;;;;;5071854;28;20212;-57
2023/08/10 08:33:27;;;;;;;1.60;1.33;;;24.70;99.90;;;;;;5071615;28;20205;-56
2023/08/10 08:35:55;;;;;;;1.77;1.30;;;25.00;99.90;;;;;;5071284;28;20204;-56
2023/08/10 08:38:22;;;;;;;1.70;1.40;;;25.10;99.90;;;;;;5071202;28;20739;-56
2023/08/10 08:40:49;;;;;;;3.55;1.45;;;25.00;99.90;;;;;;5071464;28;20201;-56
2023/08/10 08:43:17;;;;;;;2.70;1.48;;;25.00;99.90;;;;;;5071308;28;20231;-56
2023/08/10 08:45:45;;;;;;;2.63;1.75;;;25.20;99.90;;;;;;5071220;28;20282;-56
2023/08/10 08:48:14;;;;;;;2.92;1.20;;;25.40;99.90;;;;;;5071212;28;20224;-55
2023/08/10 08:50:41;;;;;;;2.30;1.23;;;25.60;99.90;;;;;;5070896;28;20563;-56
2023/08/10 08:53:10;;;;;;;2.53;1.30;;;25.80;99.90;;;;;;5070904;28;20629;-55
2023/08/10 08:55:38;;;;;;;2.08;1.50;;;26.00;99.90;;;;;;5071048;28;20241;-57
2023/08/10 08:58:05;;;;;;;1.42;1.20;;;26.30;99.90;;;;;;5070984;28;20668;-56
2023/08/10 09:00:33;;;;;;;2.58;1.73;;;26.30;99.90;;;;;;5071329;28;20712;-56
2023/08/10 09:03:00;;;;;;;3.13;2.33;;;26.30;99.90;;;;;;5071236;28;20228;-56
2023/08/10 09:05:27;;;;;;;2.60;1.60;;;26.00;99.90;;;;;;5071220;28;20592;-56
2023/08/10 09:07:54;;;;;;;5.13;1.92;;;25.90;99.90;;;;;;5070618;28;20363;-57
2023/08/10 09:10:22;;;;;;;1.88;1.65;;;25.70;99.90;;;;;;5071006;28;20208;-56
2023/08/10 09:12:49;;;;;;;4.63;1.70;;;25.50;99.90;;;;;;5071208;28;20207;-56
2023/08/10 09:15:19;;;;;;;4.25;1.90;;;25.40;99.90;;;;;;5071057;28;20680;-57
2023/08/10 09:17:47;;;;;;;3.35;1.70;;;25.40;99.90;;;;;;5070613;28;20259;-56
2023/08/10 09:20:19;;;;;;;1.60;1.50;;;25.30;99.90;;;;;;5070736;28;20215;-57
2023/08/10 09:22:47;;;;;;;2.30;1.92;;;25.20;99.90;;;;;;5071109;28;20229;-56
2023/08/10 09:25:14;;;;;;;2.05;1.85;;;25.00;99.90;;;;;;5070613;28;20552;-56
2023/08/10 09:27:42;;;;;;;2.17;1.63;;;24.80;99.90;;;;;;5070401;28;20290;-56
2023/08/10 09:30:10;;;;;;;2.53;1.70;;;24.60;99.90;;;;;;5070675;28;20287;-56
2023/08/10 09:32:39;;;;;;;3.75;2.70;;;24.60;99.90;;;;;;5071262;28;20197;-56
2023/08/10 09:35:06;;;;;;;7.18;5.60;;;24.50;99.90;;;;;;5072955;28;20205;-58
2023/08/10 09:37:33;;;;;;;2.22;1.98;;;24.50;99.90;;;;;;5073950;28;20240;-56
2023/08/10 09:40:03;;;;;;;2.67;2.00;;;24.40;99.90;;;;;;5074771;28;20224;-58
2023/08/10 09:42:31;;;;;;;2.25;1.70;;;24.30;99.90;;;;;;5074503;28;20312;-57
2023/08/10 09:45:01;;;;;;;3.47;2.00;;;24.20;99.90;;;;;;5074520;28;20205;-56
2023/08/10 09:47:27;;;;;;;3.42;1.70;;;24.00;99.90;;;;;;5074744;28;20225;-56
2023/08/10 09:49:56;;;;;;;3.22;2.10;;;24.00;99.90;;;;;;5074740;28;20208;-56
2023/08/10 09:52:24;;;;;;;2.13;1.63;;;23.80;99.90;;;;;;5074174;28;20618;-56
2023/08/10 09:54:51;;;;;;;4.88;2.00;;;23.70;99.90;;;;;;5074361;28;20213;-56
2023/08/10 09:57:19;;;;;;;4.50;2.15;;;23.60;99.90;;;;;;5073794;28;20235;-56
2023/08/10 09:59:47;;;;;;;3.08;1.80;;;23.50;99.90;;;;;;5074218;28;20205;-56
2023/08/10 10:02:16;;;;;;;2.95;2.00;;;23.50;99.90;;;;;;5073878;28;20611;-56
2023/08/10 10:04:44;;;;;;;3.10;2.10;;;23.30;99.90;;;;;;5073864;28;20209;-56
2023/08/10 10:07:12;;;;;;;2.53;2.08;;;23.30;99.90;;;;;;5074107;28;20240;-56
2023/08/10 10:09:43;;;;;;;2.67;1.92;;;23.30;99.90;;;;;;5074458;28;20212;-56
2023/08/10 10:12:10;;;;;;;5.25;2.17;;;23.30;99.90;;;;;;5074235;28;20243;-56
2023/08/10 10:14:40;;;;;;;5.40;2.20;;;23.30;99.90;;;;;;5074520;28;20201;-56
2023/08/10 10:17:07;;;;;;;3.13;2.08;;;23.30;99.90;;;;;;5073481;28;20629;-57
2023/08/10 10:19:35;;;;;;;4.78;2.30;;;23.30;99.90;;;;;;5073680;28;20591;-56
2023/08/10 10:22:03;;;;;;;2.90;2.00;;;23.30;99.90;;;;;;5073680;28;20209;-56
2023/08/10 10:24:31;;;;;;;2.75;1.83;;;23.30;99.90;;;;;;5073845;28;20295;-56
2023/08/10 10:26:59;;;;;;;2.22;1.77;;;23.40;99.90;;;;;;5073284;28;20208;-56
2023/08/10 10:29:37;;;;;;;4.18;1.88;;;23.40;99.90;;;;;;5073893;28;20208;-56
2023/08/10 10:32:22;;;;;;;4.72;1.90;;;23.50;99.90;;;;;;5073979;28;20240;-57
2023/08/10 10:34:52;;;;;;;3.70;2.25;;;23.40;99.90;;;;;;5073820;28;20213;-56
2023/08/10 10:37:22;;;;;;;2.85;2.00;;;23.50;99.90;;;;;;5073554;28;20236;-56
2023/08/10 10:39:50;;;;;;;2.95;2.00;;;23.60;99.90;;;;;;5073878;28;20716;-56
2023/08/10 10:42:19;;;;;;;2.92;1.70;;;23.80;99.90;;;;;;5073321;28;20820;-56
2023/08/10 10:44:59;;;;;;;2.63;1.60;;;24.00;99.90;;;;;;5073294;28;20296;-57
2023/08/10 10:47:38;;;;;;;3.90;1.83;;;24.20;99.90;;;;;;5073065;28;20267;-55
2023/08/10 10:50:20;;;;;;;6.15;2.17;;;24.20;99.90;;;;;;5073431;28;20246;-56
2023/08/10 10:52:54;;;;;;;3.35;2.80;;;24.40;99.90;;;;;;5073567;28;20215;-56
2023/08/10 10:55:21;;;;;;;7.30;6.50;;;24.60;99.90;;;;;;5073228;28;20265;-56
2023/08/10 10:57:49;;;;;;;3.97;1.73;;;24.70;99.90;;;;;;5072900;28;20269;-57
2023/08/10 11:00:18;;;;;;;2.22;1.63;;;24.70;99.90;;;;;;5072957;28;20738;-57
2023/08/10 11:02:44;;;;;;;2.30;2.05;;;24.70;99.90;;;;;;5073200;28;20233;-57
2023/08/10 11:05:12;;;;;;;2.00;1.80;;;24.90;99.90;;;;;;5073134;28;20552;-55
2023/08/10 11:07:44;;;;;;;2.03;1.70;;;24.80;99.90;;;;;;5072843;28;20312;-56
2023/08/10 11:10:12;;;;;;;3.00;1.77;;;24.70;99.90;;;;;;5073057;28;20209;-56
2023/08/10 11:12:41;;;;;;;5.72;2.10;;;24.50;99.90;;;;;;5073028;28;20208;-56
2023/08/10 11:15:09;;;;;;;1.60;1.50;;;24.40;99.90;;;;;;5072868;28;20676;-55
2023/08/10 11:17:36;;;;;;;2.53;1.55;;;24.50;99.90;;;;;;5072735;28;20672;-55
2023/08/10 11:20:09;;;;;;;1.90;1.50;;;24.50;99.90;;;;;;5072948;28;20201;-56
2023/08/10 11:22:38;;;;;;;2.28;1.50;;;24.30;99.90;;;;;;5072881;28;20221;-55
2023/08/10 11:25:11;;;;;;;2.38;1.70;;;24.20;99.90;;;;;;5073043;28;20327;-56
2023/08/10 11:27:39;;;;;;;2.20;1.55;;;23.90;99.90;;;;;;5072390;28;20229;-56
2023/08/10 11:30:09;;;;;;;1.77;1.38;;;23.90;99.90;;;;;;5072590;28;20205;-55
2023/08/10 11:32:38;;;;;;;2.83;1.40;;;23.80;99.90;;;;;;5073174;28;20258;-56
2023/08/10 11:35:05;;;;;;;1.80;1.40;;;23.90;99.90;;;;;;5072727;28;20208;-57
2023/08/10 11:37:35;;;;;;;2.53;1.55;;;24.10;99.90;;;;;;5072052;28;20244;-57
2023/08/10 11:40:14;;;;;;;4.32;1.95;;;24.20;99.90;;;;;;5072305;28;20227;-56
2023/08/10 11:42:41;;;;;;;5.43;1.80;;;24.30;99.90;;;;;;5072360;28;20231;-55
2023/08/10 11:45:16;;;;;;;1.60;1.42;;;24.30;99.90;;;;;;5072532;28;20574;-56
2023/08/10 11:47:44;;;;;;;2.67;1.40;;;24.30;99.90;;;;;;5072073;28;20225;-57
2023/08/10 11:50:12;;;;;;;2.30;1.88;;;24.40;99.90;;;;;;5072162;28;20231;-57
2023/08/10 11:52:40;;;;;;;2.80;2.00;;;24.70;99.90;;;;;;5072175;28;20209;-56
2023/08/10 11:55:12;;;;;;;3.15;1.55;;;24.90;99.90;;;;;;5072329;28;20239;-55
2023/08/10 11:57:40;;;;;;;2.15;1.60;;;25.00;99.90;;;;;;5071307;28;20316;-55
2023/08/10 12:00:19;;;;;;;1.98;1.50;;;25.20;99.90;;;;;;5071904;28;20205;-56
2023/08/10 12:02:57;;;;;;;2.08;1.40;;;25.30;99.90;;;;;;5071665;28;20361;-57
2023/08/10 12:05:36;;;;;;;1.88;1.45;;;25.30;99.90;;;;;;5071999;28;20232;-57
2023/08/10 12:08:04;;;;;;;1.65;1.38;;;25.40;99.90;;;;;;5071743;28;20231;-55
2023/08/10 12:10:39;;;;;;;1.67;1.40;;;25.40;99.90;;;;;;5071904;28;20204;-56
2023/08/10 12:13:08;;;;;;;2.10;1.88;;;25.30;99.90;;;;;;5072032;28;20589;-56
2023/08/10 12:15:37;;;;;;;1.33;1.20;;;25.30;99.40;;;;;;5072076;28;20213;-56
2023/08/10 12:18:04;;;;;;;1.70;1.38;;;25.40;98.70;;;;;;5071506;28;20236;-56
2023/08/10 12:20:31;;;;;;;1.65;1.27;;;25.40;97.90;;;;;;5071871;28;20253;-55
2023/08/10 12:22:58;;;;;;;2.75;1.23;;;25.40;97.60;;;;;;5071678;28;20225;-57
2023/08/10 12:25:25;;;;;;;1.42;1.33;;;25.60;96.50;;;;;;5071623;28;20205;-56
2023/08/10 12:27:53;;;;;;;2.33;1.40;;;25.80;96.00;;;;;;5071313;28;20225;-55
2023/08/10 12:30:19;;;;;;;1.75;1.50;;;26.00;95.90;;;;;;5071974;28;20204;-55
2023/08/10 12:32:46;;;;;;;3.35;1.65;;;26.10;96.50;;;;;;5071593;28;20221;-55
2023/08/10 12:35:14;;;;;;;1.50;1.27;;;26.20;97.20;;;;;;5071867;28;20211;-56
2023/08/10 12:37:40;;;;;;;1.98;1.40;;;26.20;96.10;;;;;;5091522;22;20700;-59
2023/08/10 12:40:10;;;;;;;2.60;1.30;;;26.30;95.10;;;;;;5051285;28;20198;-61
2023/08/10 12:42:37;;;;;;;3.03;1.55;;;26.40;94.10;;;;;;5051594;28;20212;-61
2023/08/10 12:45:08;;;;;;;4.28;1.40;;;26.40;94.20;;;;;;5051602;28;20206;-61
2023/08/10 12:47:34;;;;;;;2.13;1.30;;;26.30;93.90;;;;;;5050982;28;20257;-61
2023/08/10 12:50:01;;;;;;;1.55;1.40;;;26.40;94.00;;;;;;5051459;28;20232;-61
2023/08/10 12:52:28;;;;;;;2.35;1.60;;;26.50;93.00;;;;;;5051513;28;20205;-60